Time;durP1;ratioP1;P1;durP2;ratioP2;P2;SDS_P1;SDS_P2;PMS_P1;PMS_P2;Temp;Humidity;BMP_temperature;BMP_pressure;BME280_temperature;BME280_humidity;BME280_pressure;Samples;Min_cycle;Max_cycle;Signal;HPM_P1;HPM_P2
2023/02/21 02:14:34;;;;;;;1.10;0.63;;;25.10;57.80;;;;;;5123131;23;20016;-65
2023/02/21 02:17:18;;;;;;;3.72;0.88;;;25.00;58.00;;;;;;5139904;23;20013;-87
2023/02/21 02:19:58;;;;;;;1.02;0.70;;;24.90;58.20;;;;;;5144197;23;20100;-81
2023/02/21 02:22:54;;;;;;;1.13;0.77;;;24.90;58.00;;;;;;5144578;23;20095;-78
2023/02/21 02:25:39;;;;;;;1.88;0.82;;;24.90;58.40;;;;;;5151191;23;20016;-85
2023/02/21 02:28:30;;;;;;;1.23;0.73;;;24.80;57.80;;;;;;5141635;23;20086;-78
2023/02/21 02:31:11;;;;;;;1.05;0.70;;;24.80;57.60;;;;;;5145662;23;20013;-80
2023/02/21 02:33:50;;;;;;;1.55;0.63;;;24.70;57.80;;;;;;5150679;23;20162;-65
2023/02/21 02:36:19;;;;;;;2.30;0.82;;;24.70;57.50;;;;;;5147074;23;20393;-65
2023/02/21 02:38:55;;;;;;;1.33;0.80;;;24.60;57.80;;;;;;5144438;23;20020;-66
2023/02/21 02:41:34;;;;;;;1.10;0.63;;;24.60;57.50;;;;;;5134306;23;20124;-67
2023/02/21 02:44:20;;;;;;;1.58;0.80;;;24.60;57.70;;;;;;5141402;23;20099;-85
2023/02/21 02:46:45;;;;;;;1.00;0.63;;;24.60;57.50;;;;;;5145150;23;20033;-65
2023/02/21 02:49:10;;;;;;;1.38;1.05;;;24.50;57.70;;;;;;5132921;23;20023;-65
2023/02/21 02:51:35;;;;;;;1.77;0.80;;;24.40;57.80;;;;;;5144946;23;20112;-65
2023/02/21 02:53:59;;;;;;;1.80;0.80;;;24.40;58.00;;;;;;5134739;23;20020;-66
2023/02/21 02:56:25;;;;;;;1.98;1.05;;;24.40;57.60;;;;;;5136388;23;20012;-67
2023/02/21 02:59:00;;;;;;;1.15;0.70;;;24.40;57.60;;;;;;5138600;23;20385;-65
2023/02/21 03:01:44;;;;;;;0.98;0.50;;;24.40;57.40;;;;;;5136096;23;20119;-82
2023/02/21 03:04:39;;;;;;;1.07;0.50;;;24.40;57.70;;;;;;5145314;23;20382;-84
2023/02/21 03:07:15;;;;;;;0.77;0.57;;;24.30;57.60;;;;;;5143502;23;20028;-85
2023/02/21 03:09:55;;;;;;;0.93;0.68;;;24.20;57.30;;;;;;5145916;23;20080;-85
2023/02/21 03:12:44;;;;;;;1.98;0.73;;;24.20;57.50;;;;;;5143934;23;20494;-79
2023/02/21 03:15:21;;;;;;;1.45;0.88;;;24.20;57.40;;;;;;5143996;23;20012;-80
2023/02/21 03:18:06;;;;;;;0.88;0.60;;;24.20;57.50;;;;;;5153442;23;20016;-79
2023/02/21 03:20:31;;;;;;;1.13;0.70;;;24.20;57.60;;;;;;5142767;23;20023;-80
2023/02/21 03:22:55;;;;;;;1.48;0.82;;;24.10;57.50;;;;;;5142402;23;20043;-82
2023/02/21 03:25:20;;;;;;;1.00;0.55;;;24.10;57.20;;;;;;5154032;23;20794;-81
2023/02/21 03:27:43;;;;;;;1.95;0.98;;;24.10;57.60;;;;;;5154748;23;20236;-83
2023/02/21 03:30:08;;;;;;;1.60;0.75;;;24.00;57.50;;;;;;5155948;23;20076;-83
2023/02/21 03:34:57;;;;;;;2.40;1.05;;;24.00;58.00;;;;;;5155871;22;20043;-84
2023/02/21 03:37:30;;;;;;;0.90;0.68;;;24.00;57.90;;;;;;5154294;23;20035;-83
2023/02/21 03:39:52;;;;;;;1.02;0.80;;;23.90;57.40;;;;;;5156231;23;20036;-77
2023/02/21 03:42:15;;;;;;;1.27;0.57;;;23.90;57.60;;;;;;5155939;23;20008;-79
2023/02/21 03:44:37;;;;;;;1.35;0.63;;;23.90;58.10;;;;;;5155371;23;20016;-77
2023/02/21 03:46:59;;;;;;;1.08;0.60;;;23.80;58.60;;;;;;5153874;23;20028;-82
2023/02/21 03:49:22;;;;;;;0.82;0.60;;;23.80;58.20;;;;;;5154793;23;20012;-82
2023/02/21 03:51:44;;;;;;;2.42;0.70;;;23.80;58.00;;;;;;5152847;23;20048;-78
2023/02/21 03:54:07;;;;;;;1.60;0.80;;;23.80;58.20;;;;;;5141009;23;20063;-80
2023/02/21 03:56:29;;;;;;;1.05;0.57;;;23.80;58.30;;;;;;5154032;23;20094;-78
2023/02/21 03:58:51;;;;;;;2.00;0.88;;;23.70;58.40;;;;;;5152581;23;20071;-63
2023/02/21 04:01:15;;;;;;;1.60;0.80;;;23.70;58.30;;;;;;5138907;23;20036;-67
2023/02/21 04:03:37;;;;;;;1.25;0.65;;;23.70;58.20;;;;;;5134604;23;20047;-64
2023/02/21 04:06:02;;;;;;;1.23;0.60;;;23.60;58.30;;;;;;5146985;23;20025;-65
2023/02/21 04:08:25;;;;;;;1.73;1.00;;;23.70;58.30;;;;;;5146339;23;20440;-65
2023/02/21 04:10:47;;;;;;;1.75;0.88;;;23.70;58.00;;;;;;5146345;23;20012;-80
2023/02/21 04:13:10;;;;;;;1.65;0.85;;;23.70;57.90;;;;;;5153931;23;20101;-80
2023/02/21 04:15:32;;;;;;;2.20;1.35;;;23.70;58.30;;;;;;5144070;23;20082;-79
2023/02/21 04:17:55;;;;;;;1.48;0.65;;;23.70;58.10;;;;;;5154117;23;20498;-83
2023/02/21 04:20:17;;;;;;;1.33;0.73;;;23.70;58.10;;;;;;5156103;23;20016;-81
2023/02/21 04:22:40;;;;;;;1.13;0.52;;;23.60;58.20;;;;;;5153749;23;20008;-82
2023/02/21 04:25:02;;;;;;;1.42;0.68;;;23.60;58.20;;;;;;5145629;23;20044;-79
2023/02/21 04:27:25;;;;;;;2.75;0.80;;;23.60;58.20;;;;;;5151469;23;20047;-65
2023/02/21 04:29:48;;;;;;;2.22;1.02;;;23.60;58.20;;;;;;5137197;23;20023;-66
2023/02/21 04:32:11;;;;;;;2.25;0.85;;;23.60;58.20;;;;;;5146015;23;20016;-65
2023/02/21 04:34:33;;;;;;;1.55;1.00;;;23.60;57.80;;;;;;5144615;23;20043;-66
2023/02/21 04:36:56;;;;;;;1.35;0.80;;;23.60;58.10;;;;;;5133001;23;20027;-66
2023/02/21 04:39:18;;;;;;;2.30;1.13;;;23.60;58.30;;;;;;5141261;23;20154;-81
2023/02/21 04:41:41;;;;;;;1.45;0.75;;;23.60;58.20;;;;;;5147796;23;20035;-66
2023/02/21 04:44:04;;;;;;;1.75;0.98;;;23.60;58.10;;;;;;5135250;23;20550;-66
2023/02/21 04:46:26;;;;;;;1.40;0.88;;;23.60;58.20;;;;;;5148385;23;20535;-66
2023/02/21 04:48:50;;;;;;;1.42;1.00;;;23.60;58.20;;;;;;5136913;23;20013;-68
2023/02/21 04:51:15;;;;;;;1.48;1.08;;;23.60;58.30;;;;;;5150068;23;20491;-66
2023/02/21 04:53:37;;;;;;;1.65;0.90;;;23.60;58.40;;;;;;5136264;23;20020;-67
2023/02/21 04:56:00;;;;;;;0.70;0.70;;;23.60;58.20;;;;;;5136641;23;20043;-83
2023/02/21 04:58:22;;;;;;;2.03;0.80;;;23.60;58.20;;;;;;5154599;23;20380;-79
2023/02/21 05:00:44;;;;;;;1.35;0.80;;;23.60;58.20;;;;;;5142224;23;20026;-81
2023/02/21 05:03:07;;;;;;;1.83;0.85;;;23.60;58.10;;;;;;5149757;23;20016;-76
2023/02/21 05:05:29;;;;;;;0.98;0.63;;;23.60;58.20;;;;;;5132246;23;20016;-84
2023/02/21 05:07:55;;;;;;;1.95;1.10;;;23.60;58.10;;;;;;5133169;23;20021;-84
2023/02/21 05:10:18;;;;;;;1.02;0.70;;;23.60;58.00;;;;;;5141864;23;20086;-76
2023/02/21 05:12:41;;;;;;;1.42;0.70;;;23.70;58.10;;;;;;5131135;23;20038;-76
2023/02/21 05:15:04;;;;;;;1.80;0.90;;;23.60;58.00;;;;;;5129715;23;20614;-77
2023/02/21 05:17:26;;;;;;;2.13;0.80;;;23.60;58.20;;;;;;5129748;23;20016;-76
2023/02/21 05:19:49;;;;;;;1.48;0.90;;;23.60;58.00;;;;;;5139299;23;20017;-79
2023/02/21 05:22:11;;;;;;;0.77;0.60;;;23.60;57.80;;;;;;5127206;23;20576;-79
2023/02/21 05:24:34;;;;;;;1.40;0.70;;;23.60;57.80;;;;;;5141215;23;20731;-77
2023/02/21 05:26:58;;;;;;;4.53;0.60;;;23.60;57.80;;;;;;5141145;23;20059;-78
2023/02/21 05:29:20;;;;;;;0.68;0.52;;;23.60;57.60;;;;;;5129321;23;20016;-83
2023/02/21 05:31:42;;;;;;;4.85;1.10;;;23.60;57.40;;;;;;5129152;23;20017;-75
2023/02/21 05:34:05;;;;;;;2.10;0.95;;;23.60;57.50;;;;;;5132050;23;20120;-81
2023/02/21 05:36:27;;;;;;;4.28;1.08;;;23.50;57.60;;;;;;5137902;23;20468;-75
2023/02/21 05:38:53;;;;;;;3.08;1.17;;;23.60;58.00;;;;;;5137903;23;20012;-78
2023/02/21 05:41:16;;;;;;;8.60;1.80;;;23.60;57.60;;;;;;5138134;23;20016;-78
2023/02/21 05:43:39;;;;;;;2.25;1.35;;;23.60;57.70;;;;;;5125795;23;20506;-77
2023/02/21 05:46:04;;;;;;;1.33;0.88;;;23.60;57.50;;;;;;5139430;23;20052;-74
2023/02/21 05:48:27;;;;;;;2.38;0.90;;;23.60;57.60;;;;;;5128424;23;20017;-78
2023/02/21 05:50:49;;;;;;;2.17;0.90;;;23.60;57.40;;;;;;5137986;23;20054;-82
2023/02/21 05:53:11;;;;;;;4.50;1.23;;;23.60;57.60;;;;;;5129577;23;20016;-77
2023/02/21 05:55:34;;;;;;;3.03;1.35;;;23.50;57.50;;;;;;5137959;23;20012;-74
2023/02/21 05:57:56;;;;;;;4.05;1.98;;;23.50;57.80;;;;;;5137590;23;20024;-79
2023/02/21 06:00:22;;;;;;;3.72;2.20;;;23.50;58.10;;;;;;5137693;23;20095;-75
2023/02/21 06:02:45;;;;;;;7.85;3.70;;;23.50;58.20;;;;;;5138033;23;20496;-79
2023/02/21 06:05:08;;;;;;;9.18;4.82;;;23.50;58.10;;;;;;5127440;23;20012;-66
2023/02/21 06:07:30;;;;;;;9.60;4.95;;;23.50;57.80;;;;;;5123677;23;20059;-65
2023/02/21 06:09:53;;;;;;;10.27;5.32;;;23.50;58.00;;;;;;5126329;23;20020;-67
2023/02/21 06:12:15;;;;;;;11.77;5.07;;;23.50;58.60;;;;;;5122329;23;20067;-67
2023/02/21 06:14:38;;;;;;;12.80;4.63;;;23.60;59.10;;;;;;5122984;23;20201;-67
2023/02/21 06:17:01;;;;;;;11.48;4.45;;;23.80;59.60;;;;;;5136310;23;20016;-67
2023/02/21 06:19:24;;;;;;;10.60;4.03;;;24.00;59.80;;;;;;5124739;23;20108;-68
2023/02/21 06:21:52;;;;;;;9.27;3.60;;;24.20;60.10;;;;;;5126434;23;20083;-66
2023/02/21 06:24:14;;;;;;;10.48;3.70;;;24.30;60.20;;;;;;5125165;23;20792;-65
2023/02/21 06:26:37;;;;;;;8.60;3.55;;;24.40;60.50;;;;;;5137542;23;20536;-66
2023/02/21 06:29:00;;;;;;;9.50;3.58;;;24.60;60.60;;;;;;5143358;22;20022;-67
2023/02/21 06:31:23;;;;;;;10.40;4.60;;;24.70;61.10;;;;;;5128581;23;20234;-67
2023/02/21 06:33:46;;;;;;;9.07;4.82;;;24.80;61.10;;;;;;5129249;23;20717;-66
2023/02/21 06:36:13;;;;;;;9.77;5.20;;;24.90;61.20;;;;;;5131627;23;20096;-66
2023/02/21 06:38:39;;;;;;;8.50;4.97;;;25.10;61.60;;;;;;5142917;23;20021;-67
2023/02/21 06:41:05;;;;;;;9.18;5.80;;;25.10;61.60;;;;;;5142535;23;20109;-77
2023/02/21 06:43:28;;;;;;;9.27;6.20;;;25.20;61.60;;;;;;5143022;23;20017;-74
2023/02/21 06:45:50;;;;;;;12.27;6.60;;;25.30;61.60;;;;;;5129076;23;20468;-73
2023/02/21 06:48:17;;;;;;;14.00;6.97;;;25.40;62.10;;;;;;5128425;23;20581;-77
2023/02/21 06:50:39;;;;;;;12.77;7.13;;;25.50;62.40;;;;;;5132394;23;20020;-76
2023/02/21 06:53:02;;;;;;;12.55;7.70;;;25.60;62.30;;;;;;5139020;23;20480;-74
2023/02/21 06:55:24;;;;;;;11.27;6.97;;;25.70;62.90;;;;;;5147353;23;20021;-73
2023/02/21 06:57:47;;;;;;;10.57;7.05;;;25.70;63.10;;;;;;5146531;23;20016;-75
2023/02/21 07:00:10;;;;;;;11.93;7.28;;;25.80;63.10;;;;;;5134627;23;20024;-76
2023/02/21 07:02:32;;;;;;;11.50;7.45;;;25.90;63.30;;;;;;5145787;23;20023;-76
2023/02/21 07:04:55;;;;;;;12.18;8.27;;;26.00;63.10;;;;;;5145093;23;20021;-74
2023/02/21 07:07:20;;;;;;;13.95;8.23;;;26.10;63.60;;;;;;5147704;23;20035;-74
2023/02/21 07:09:42;;;;;;;13.75;8.98;;;26.10;63.50;;;;;;5146221;23;20510;-66
2023/02/21 07:12:07;;;;;;;17.02;9.75;;;26.20;63.70;;;;;;5144805;23;20020;-68
2023/02/21 07:14:30;;;;;;;14.13;10.88;;;26.30;63.80;;;;;;5132973;23;20032;-67
2023/02/21 07:16:52;;;;;;;15.60;11.40;;;26.30;64.00;;;;;;5131005;23;20020;-65
2023/02/21 07:19:16;;;;;;;18.08;12.60;;;26.40;64.30;;;;;;5144346;23;20110;-68
2023/02/21 07:21:38;;;;;;;20.63;12.15;;;26.50;64.70;;;;;;5131856;23;20356;-76
2023/02/21 07:24:00;;;;;;;17.85;11.98;;;26.60;64.80;;;;;;5135885;23;20078;-82
2023/02/21 07:26:23;;;;;;;17.10;11.60;;;26.60;65.10;;;;;;5135538;23;20354;-82
2023/02/21 07:28:48;;;;;;;14.73;11.20;;;26.70;65.40;;;;;;5131665;23;20016;-79
2023/02/21 07:31:10;;;;;;;16.63;11.38;;;26.80;65.50;;;;;;5129190;23;20027;-85
2023/02/21 07:33:33;;;;;;;21.10;12.07;;;26.80;65.70;;;;;;5129981;23;20091;-81
2023/02/21 07:36:05;;;;;;;16.20;11.15;;;26.80;65.90;;;;;;5139014;23;20070;-76
2023/02/21 07:38:30;;;;;;;14.38;10.10;;;26.90;66.20;;;;;;5127654;23;20043;-74
2023/02/21 07:40:57;;;;;;;12.45;10.32;;;26.90;66.20;;;;;;5129870;23;20023;-70
2023/02/21 07:43:19;;;;;;;15.02;10.30;;;27.00;66.30;;;;;;5126427;23;20020;-72
2023/02/21 07:45:42;;;;;;;17.38;9.63;;;27.00;66.50;;;;;;5129189;23;20023;-73
2023/02/21 07:48:04;;;;;;;17.13;9.30;;;27.10;66.70;;;;;;5133427;23;20373;-71
2023/02/21 07:50:29;;;;;;;16.38;8.63;;;27.10;66.30;;;;;;5132245;22;20048;-50
2023/02/21 07:52:52;;;;;;;15.30;7.60;;;27.20;66.70;;;;;;5136201;23;20024;-45
2023/02/21 07:55:14;;;;;;;16.25;7.18;;;27.20;67.00;;;;;;5135711;23;20016;-48
2023/02/21 07:57:37;;;;;;;12.23;6.93;;;27.20;67.30;;;;;;5135475;23;20012;-52
2023/02/21 07:59:59;;;;;;;9.85;6.38;;;27.20;67.50;;;;;;5136302;23;20102;-49
2023/02/21 08:02:21;;;;;;;9.68;5.68;;;27.20;67.50;;;;;;5137928;23;20423;-46
2023/02/21 08:04:44;;;;;;;8.52;5.40;;;27.30;67.60;;;;;;5138388;23;20016;-47
2023/02/21 08:07:08;;;;;;;7.57;5.05;;;27.30;67.60;;;;;;5137867;23;20158;-47
2023/02/21 08:09:32;;;;;;;9.18;5.05;;;27.30;67.50;;;;;;5136735;23;20016;-45
2023/02/21 08:11:54;;;;;;;7.85;4.80;;;27.30;67.50;;;;;;5139612;23;20025;-50
2023/02/21 08:14:17;;;;;;;8.93;4.90;;;27.30;67.40;;;;;;5137838;23;20012;-47
2023/02/21 08:16:39;;;;;;;8.60;4.75;;;27.40;67.20;;;;;;5138113;23;20435;-49
2023/02/21 08:19:04;;;;;;;7.28;4.55;;;27.40;67.20;;;;;;5137169;23;20027;-52
2023/02/21 08:21:26;;;;;;;6.63;4.43;;;27.40;67.10;;;;;;5139001;23;20025;-50
2023/02/21 08:23:53;;;;;;;7.70;3.90;;;27.40;67.00;;;;;;5138560;23;20012;-49
2023/02/21 08:26:16;;;;;;;6.63;4.15;;;27.40;67.00;;;;;;5137054;23;20031;-51
2023/02/21 08:28:38;;;;;;;7.50;3.95;;;27.40;66.90;;;;;;5129912;23;20480;-48
2023/02/21 08:31:01;;;;;;;5.60;3.58;;;27.40;66.70;;;;;;5138193;23;20017;-47
2023/02/21 08:33:23;;;;;;;5.88;3.53;;;27.40;66.60;;;;;;5140209;23;20483;-52
2023/02/21 08:35:46;;;;;;;6.78;3.58;;;27.40;66.50;;;;;;5140440;23;20020;-50
2023/02/21 08:38:09;;;;;;;6.07;3.55;;;27.40;66.60;;;;;;5139600;23;20017;-48
2023/02/21 08:40:32;;;;;;;4.82;3.30;;;27.40;66.60;;;;;;5128813;23;20407;-47
2023/02/21 08:42:55;;;;;;;5.25;2.95;;;27.40;66.50;;;;;;5139541;23;20370;-48
2023/02/21 08:45:19;;;;;;;7.00;3.30;;;27.40;66.70;;;;;;5138014;23;20059;-47
2023/02/21 08:47:42;;;;;;;5.93;3.10;;;27.40;66.60;;;;;;5139788;23;20127;-49
2023/02/21 08:50:04;;;;;;;4.18;2.72;;;27.40;66.60;;;;;;5139958;23;20110;-53
2023/02/21 08:52:27;;;;;;;5.37;2.47;;;27.40;66.60;;;;;;5140209;23;20100;-47
2023/02/21 08:54:49;;;;;;;5.88;2.50;;;27.40;66.60;;;;;;5138282;23;20072;-46
2023/02/21 08:57:12;;;;;;;5.85;3.15;;;27.40;66.50;;;;;;5136949;23;20099;-51
2023/02/21 08:59:36;;;;;;;5.38;2.55;;;27.40;66.50;;;;;;5121792;23;20256;-50
2023/02/21 09:02:00;;;;;;;4.55;2.40;;;27.40;66.60;;;;;;5134399;23;20023;-49
2023/02/21 09:04:22;;;;;;;;;;;27.40;66.50;;;;;;5135617;23;20023;-50
2023/02/21 09:06:44;;;;;;;4.43;2.05;;;27.40;66.40;;;;;;5134314;23;19954;-47
2023/02/21 09:09:06;;;;;;;3.40;2.17;;;27.40;66.50;;;;;;5133831;23;20505;-46
2023/02/21 09:11:29;;;;;;;4.07;2.30;;;27.40;66.60;;;;;;5135149;23;20543;-49
2023/02/21 09:13:53;;;;;;;4.43;2.05;;;27.40;66.60;;;;;;5136249;23;20012;-47
2023/02/21 09:16:16;;;;;;;4.35;2.17;;;27.40;66.70;;;;;;5125563;22;20488;-62
2023/02/21 09:18:38;;;;;;;4.97;2.03;;;27.40;67.40;;;;;;5135344;23;20024;-63
2023/02/21 09:21:01;;;;;;;4.00;2.28;;;27.40;66.90;;;;;;5135570;23;20017;-62
2023/02/21 09:23:25;;;;;;;3.08;2.13;;;27.40;66.90;;;;;;5136949;23;20021;-62
2023/02/21 09:25:48;;;;;;;3.33;1.73;;;27.40;66.90;;;;;;5134235;23;20020;-62
2023/02/21 09:28:11;;;;;;;3.67;2.20;;;27.30;67.50;;;;;;5134542;23;20020;-62
2023/02/21 09:30:33;;;;;;;2.92;2.05;;;27.30;67.00;;;;;;5134140;23;20435;-63
2023/02/21 09:32:57;;;;;;;3.67;2.15;;;27.30;66.90;;;;;;5135687;23;20024;-62
2023/02/21 09:35:19;;;;;;;3.05;2.08;;;27.30;66.90;;;;;;5125983;23;20021;-73
2023/02/21 09:37:43;;;;;;;4.40;2.00;;;27.30;66.90;;;;;;5136232;23;20027;-73
2023/02/21 09:40:31;;;;;;;3.00;1.95;;;27.30;66.90;;;;;;5135530;23;20782;-70
2023/02/21 09:42:57;;;;;;;3.28;1.90;;;27.30;66.80;;;;;;5136756;23;20031;-72
2023/02/21 09:45:21;;;;;;;3.97;2.20;;;27.30;66.80;;;;;;5136246;23;20040;-71
2023/02/21 09:47:45;;;;;;;3.25;1.95;;;27.30;67.20;;;;;;5107292;22;20044;-46
2023/02/21 09:50:14;;;;;;;3.42;1.88;;;27.30;66.90;;;;;;5121079;23;20070;-44
2023/02/21 09:52:39;;;;;;;3.92;1.92;;;27.30;67.00;;;;;;5125349;23;20457;-45
2023/02/21 09:55:39;;;;;;;3.17;2.00;;;27.30;67.00;;;;;;5128549;23;20044;-51
2023/02/21 09:58:02;;;;;;;4.05;2.13;;;27.40;67.10;;;;;;5120865;23;20084;-52
2023/02/21 10:00:35;;;;;;;3.57;2.10;;;27.30;67.00;;;;;;5118980;23;20378;-49
2023/02/21 10:03:39;;;;;;;3.20;2.00;;;27.30;67.00;;;;;;5128470;23;20392;-47
2023/02/21 10:06:18;;;;;;;2.97;2.03;;;27.30;67.00;;;;;;5077967;23;20478;-50
2023/02/21 10:09:20;;;;;;;3.63;2.00;;;27.30;67.00;;;;;;5128598;23;20024;-47
2023/02/21 10:12:07;;;;;;;3.58;2.00;;;27.30;67.00;;;;;;5118545;23;20416;-47
2023/02/21 10:14:55;;;;;;;3.75;2.13;;;27.30;67.00;;;;;;5129896;23;20023;-46
2023/02/21 10:17:33;;;;;;;4.03;2.70;;;27.30;67.00;;;;;;5131065;23;20127;-47
2023/02/21 10:20:01;;;;;;;6.15;2.17;;;27.30;67.30;;;;;;5132240;23;20012;-49
2023/02/21 10:22:30;;;;;;;4.55;2.45;;;27.30;67.20;;;;;;5134393;23;20013;-45
2023/02/21 10:24:53;;;;;;;5.78;2.45;;;27.30;67.10;;;;;;5133048;23;20021;-47
2023/02/21 10:27:33;;;;;;;4.90;2.20;;;27.40;67.00;;;;;;5136217;23;20025;-51
2023/02/21 10:30:07;;;;;;;5.15;2.78;;;27.40;67.00;;;;;;5134261;23;20059;-48
2023/02/21 10:32:30;;;;;;;4.45;2.13;;;27.40;67.00;;;;;;5135293;23;20056;-48
2023/02/21 10:34:53;;;;;;;10.20;3.05;;;27.40;66.80;;;;;;5134835;23;20019;-48
2023/02/21 10:37:47;;;;;;;7.90;2.42;;;27.40;66.90;;;;;;5134056;23;20028;-48
2023/02/21 10:40:42;;;;;;;4.40;2.00;;;27.40;66.90;;;;;;5134569;23;20032;-46
2023/02/21 10:43:16;;;;;;;3.80;1.98;;;27.50;67.00;;;;;;5124407;23;20035;-51
2023/02/21 10:45:50;;;;;;;5.30;2.10;;;27.50;67.30;;;;;;5122919;23;20016;-46
2023/02/21 10:48:13;;;;;;;3.78;1.98;;;27.50;66.80;;;;;;5134163;23;20131;-46
2023/02/21 10:50:38;;;;;;;3.67;2.20;;;27.50;66.80;;;;;;5135723;23;20426;-46
2023/02/21 10:53:01;;;;;;;6.20;2.08;;;27.50;66.80;;;;;;5134902;23;20186;-46
2023/02/21 10:55:23;;;;;;;4.80;2.00;;;27.50;66.90;;;;;;5136643;23;20016;-46
2023/02/21 10:57:51;;;;;;;5.40;2.03;;;27.60;66.90;;;;;;5129951;23;20020;-47
2023/02/21 11:00:24;;;;;;;4.95;2.13;;;27.60;66.70;;;;;;5137753;23;20051;-47
2023/02/21 11:02:52;;;;;;;4.38;2.00;;;27.60;66.70;;;;;;5137157;23;20051;-48
2023/02/21 11:05:21;;;;;;;3.88;2.10;;;27.60;66.70;;;;;;5109835;23;20025;-43
2023/02/21 11:08:30;;;;;;;4.28;2.10;;;27.70;66.70;;;;;;5129392;23;20021;-47
2023/02/21 11:10:55;;;;;;;3.92;2.33;;;27.60;66.60;;;;;;5105945;23;20055;-42
2023/02/21 11:13:21;;;;;;;10.55;2.92;;;27.60;66.70;;;;;;5134569;23;20075;-45
2023/02/21 11:15:45;;;;;;;14.68;2.97;;;27.60;66.40;;;;;;5135205;23;20581;-44
2023/02/21 11:18:15;;;;;;;;;;;27.60;66.40;;;;;;5137175;23;20457;-42
2023/02/21 11:20:37;;;;;;;14.85;2.80;;;27.50;66.50;;;;;;5136500;23;19907;-42
2023/02/21 11:23:00;;;;;;;36.57;5.50;;;27.50;66.60;;;;;;5135206;23;20091;-42
2023/02/21 11:25:32;;;;;;;31.85;4.18;;;27.40;66.70;;;;;;5134545;23;20021;-44
2023/02/21 11:28:11;;;;;;;28.42;4.80;;;27.50;66.70;;;;;;5138580;23;20720;-42
2023/02/21 11:30:39;;;;;;;20.95;4.55;;;27.50;66.80;;;;;;5128036;23;20023;-43
2023/02/21 11:33:03;;;;;;;13.32;2.90;;;27.50;66.90;;;;;;5137046;23;20012;-44
2023/02/21 11:35:29;;;;;;;11.38;2.80;;;27.50;66.90;;;;;;5129503;22;20532;-45
2023/02/21 11:37:59;;;;;;;10.13;2.92;;;27.50;66.90;;;;;;5137965;23;20020;-46
2023/02/21 11:40:49;;;;;;;7.97;2.70;;;27.50;66.90;;;;;;5138063;23;20497;-46
2023/02/21 11:43:21;;;;;;;6.43;2.25;;;27.40;66.80;;;;;;5130287;23;20115;-44
2023/02/21 11:45:51;;;;;;;5.60;3.22;;;27.40;66.90;;;;;;5128934;23;20473;-45
2023/02/21 11:48:17;;;;;;;7.95;3.00;;;27.40;67.00;;;;;;5138833;23;20525;-47
2023/02/21 11:50:47;;;;;;;4.90;2.90;;;27.30;67.10;;;;;;5139440;23;20078;-45
2023/02/21 11:53:32;;;;;;;5.60;2.72;;;27.30;67.20;;;;;;5138414;23;20020;-44
2023/02/21 11:56:03;;;;;;;;;;;27.30;67.20;;;;;;5127164;23;20036;-45
2023/02/21 11:58:37;;;;;;;4.32;2.33;;;27.30;67.30;;;;;;5140149;23;19986;-43
2023/02/21 12:01:11;;;;;;;4.10;2.67;;;27.30;67.40;;;;;;5137834;23;20062;-43
2023/02/21 12:03:53;;;;;;;12.48;3.10;;;27.30;67.40;;;;;;5134051;23;20020;-47
2023/02/21 12:06:17;;;;;;;5.32;2.80;;;27.30;67.30;;;;;;5132297;23;20021;-44
2023/02/21 12:08:49;;;;;;;6.68;3.22;;;27.30;67.20;;;;;;5132219;23;20749;-46
2023/02/21 12:11:25;;;;;;;6.47;2.58;;;27.30;67.30;;;;;;5141443;23;20027;-50
2023/02/21 12:13:58;;;;;;;6.78;2.40;;;27.30;67.30;;;;;;5140494;23;20409;-48
2023/02/21 12:16:48;;;;;;;4.68;2.50;;;27.30;67.20;;;;;;5140544;23;20027;-46
2023/02/21 12:19:32;;;;;;;4.93;2.88;;;27.20;67.20;;;;;;5140647;23;20016;-47
2023/02/21 12:22:19;;;;;;;6.68;2.22;;;27.30;67.30;;;;;;5139905;23;20373;-44
2023/02/21 12:25:10;;;;;;;5.30;2.30;;;27.20;67.10;;;;;;5140226;23;20016;-43
2023/02/21 12:28:03;;;;;;;7.50;2.80;;;27.30;67.10;;;;;;5139939;23;20075;-45
2023/02/21 12:30:44;;;;;;;5.07;2.60;;;27.20;67.20;;;;;;5140535;23;20016;-45
2023/02/21 12:33:16;;;;;;;4.28;2.30;;;27.20;67.10;;;;;;5140115;23;20362;-46
2023/02/21 12:36:14;;;;;;;6.55;2.92;;;27.30;67.20;;;;;;5140019;23;20054;-47
2023/02/21 12:39:00;;;;;;;4.43;2.40;;;27.30;67.20;;;;;;5133237;23;20021;-44
2023/02/21 12:41:38;;;;;;;6.55;2.85;;;27.30;67.20;;;;;;5141632;23;20012;-51
2023/02/21 12:44:21;;;;;;;5.60;2.67;;;27.30;67.20;;;;;;5140601;23;20067;-45
2023/02/21 12:47:09;;;;;;;4.78;2.58;;;27.30;67.30;;;;;;5139370;23;20024;-46
2023/02/21 12:49:43;;;;;;;5.95;2.58;;;27.20;67.20;;;;;;5140392;23;20016;-42
2023/02/21 12:52:14;;;;;;;5.78;2.60;;;27.20;67.10;;;;;;5131142;23;20020;-42
2023/02/21 12:55:28;;;;;;;6.00;2.28;;;27.20;67.30;;;;;;5141027;23;20024;-45
2023/02/21 12:58:31;;;;;;;6.60;3.15;;;27.20;67.30;;;;;;5126882;23;20143;-45
2023/02/21 13:01:09;;;;;;;6.70;2.58;;;27.20;67.30;;;;;;5139930;23;20464;-43
2023/02/21 13:03:51;;;;;;;5.15;2.60;;;27.20;67.40;;;;;;5141106;23;20016;-43
2023/02/21 13:06:25;;;;;;;5.22;2.40;;;27.20;67.40;;;;;;5132849;23;20020;-44
2023/02/21 13:09:34;;;;;;;5.95;2.40;;;27.20;67.40;;;;;;5140361;23;20025;-44
2023/02/21 13:12:00;;;;;;;6.45;2.72;;;27.20;67.30;;;;;;5099840;23;20454;-44
2023/02/21 13:14:40;;;;;;;5.65;2.42;;;27.20;67.40;;;;;;5141145;23;20028;-44
2023/02/21 13:17:02;;;;;;;5.30;2.25;;;27.20;67.50;;;;;;5141309;23;20370;-44
2023/02/21 13:19:31;;;;;;;5.82;2.33;;;27.10;67.50;;;;;;5143262;23;20025;-49
2023/02/21 13:21:53;;;;;;;4.40;2.28;;;27.10;67.50;;;;;;5141801;23;20044;-45
2023/02/21 13:24:40;;;;;;;3.65;2.13;;;27.10;67.60;;;;;;5141563;23;20020;-46
2023/02/21 13:27:21;;;;;;;6.95;2.60;;;27.10;67.50;;;;;;5139648;23;20028;-46
2023/02/21 13:29:44;;;;;;;4.75;2.25;;;27.10;67.50;;;;;;5140946;23;20017;-43
2023/02/21 13:32:06;;;;;;;;;;;27.10;67.60;;;;;;5142293;23;20318;-43
2023/02/21 13:34:35;;;;;;;5.43;2.33;;;27.10;67.70;;;;;;5141135;23;19919;-42
2023/02/21 13:37:08;;;;;;;6.00;2.78;;;27.10;67.70;;;;;;5142230;23;20110;-43
2023/02/21 13:39:35;;;;;;;5.55;2.40;;;27.00;67.70;;;;;;5129558;23;20044;-44
2023/02/21 13:42:25;;;;;;;5.82;2.45;;;27.10;68.00;;;;;;5139856;23;20025;-43
2023/02/21 13:44:52;;;;;;;5.55;2.80;;;27.10;67.80;;;;;;5142599;23;20413;-46
2023/02/21 13:47:21;;;;;;;4.75;2.13;;;27.00;67.80;;;;;;5137519;23;20028;-43
2023/02/21 13:49:47;;;;;;;5.38;2.28;;;27.00;67.80;;;;;;5139954;23;20023;-45
2023/02/21 13:52:25;;;;;;;9.10;3.22;;;27.00;67.80;;;;;;5128713;23;20016;-44
2023/02/21 13:55:09;;;;;;;5.28;2.33;;;26.90;67.80;;;;;;5133924;23;20017;-42
2023/02/21 13:57:34;;;;;;;6.72;2.58;;;26.90;67.90;;;;;;5138370;23;20024;-45
2023/02/21 13:59:57;;;;;;;7.60;2.33;;;26.90;68.00;;;;;;5141059;23;20017;-47
2023/02/21 14:02:31;;;;;;;7.88;2.75;;;26.80;68.00;;;;;;5140923;23;20022;-45
2023/02/21 14:04:57;;;;;;;5.88;2.63;;;26.90;68.20;;;;;;5138842;23;20423;-47
2023/02/21 14:07:40;;;;;;;7.97;2.88;;;26.90;68.10;;;;;;5141410;23;20031;-47
2023/02/21 14:10:04;;;;;;;3.80;1.88;;;27.00;68.00;;;;;;5140962;23;20019;-45
2023/02/21 14:12:26;;;;;;;5.63;2.03;;;27.00;67.80;;;;;;5129676;23;20052;-48
2023/02/21 14:14:51;;;;;;;4.72;2.10;;;27.00;67.70;;;;;;5143511;23;20024;-48
2023/02/21 14:17:15;;;;;;;5.18;2.08;;;27.00;67.60;;;;;;5134822;23;20099;-50
2023/02/21 14:19:42;;;;;;;4.03;1.80;;;27.10;67.50;;;;;;5134601;23;20028;-46
2023/02/21 14:22:13;;;;;;;4.78;1.80;;;27.00;67.40;;;;;;5140875;23;20031;-49
2023/02/21 14:24:39;;;;;;;4.28;1.75;;;27.10;67.40;;;;;;5142412;23;20046;-50
2023/02/21 14:27:11;;;;;;;4.28;1.90;;;27.00;67.30;;;;;;5133928;23;20450;-48
2023/02/21 14:29:36;;;;;;;3.40;1.40;;;27.00;67.40;;;;;;5141083;23;20012;-46
2023/02/21 14:32:02;;;;;;;4.18;1.98;;;27.10;67.40;;;;;;5142638;23;20023;-49
2023/02/21 14:34:27;;;;;;;3.72;1.50;;;27.10;67.40;;;;;;5134923;23;20020;-50
2023/02/21 14:36:51;;;;;;;5.07;1.88;;;27.10;67.30;;;;;;5141100;23;20021;-50
2023/02/21 14:39:14;;;;;;;3.22;2.00;;;27.10;67.40;;;;;;5142048;23;20485;-49
2023/02/21 14:41:42;;;;;;;4.23;1.60;;;27.10;67.20;;;;;;5129420;23;20350;-50
2023/02/21 14:44:10;;;;;;;3.92;1.70;;;27.10;67.20;;;;;;5143225;23;20020;-51
2023/02/21 14:46:44;;;;;;;3.47;1.58;;;27.10;67.10;;;;;;5142395;23;20029;-47
2023/02/21 14:49:37;;;;;;;3.40;1.45;;;27.10;67.10;;;;;;5142640;23;20023;-46
2023/02/21 14:52:42;;;;;;;2.47;1.10;;;27.10;67.00;;;;;;5142354;23;20096;-46
2023/02/21 14:55:23;;;;;;;4.97;1.73;;;27.10;67.10;;;;;;5129467;23;20075;-46
2023/02/21 14:58:06;;;;;;;2.60;1.30;;;27.10;67.00;;;;;;5140010;23;20082;-46
2023/02/21 15:00:31;;;;;;;2.97;1.50;;;27.00;66.90;;;;;;5140965;23;20357;-48
2023/02/21 15:03:15;;;;;;;2.83;1.20;;;27.00;66.90;;;;;;5140508;23;20241;-48
2023/02/21 15:05:40;;;;;;;3.30;1.47;;;27.10;67.00;;;;;;5142815;23;20107;-48
2023/02/21 15:08:15;;;;;;;3.00;1.58;;;27.10;66.90;;;;;;5132513;23;20289;-46
2023/02/21 15:10:45;;;;;;;5.40;1.63;;;27.00;66.90;;;;;;5142041;23;20371;-50